createdAt,value
2022-11-04T00:01:24.259Z,72.07
2022-11-04T00:04:28.118Z,72.36
2022-11-04T00:07:48.952Z,72.66
2022-11-04T00:11:13.939Z,72.60
2022-11-04T00:14:16.248Z,72.47
2022-11-04T00:17:24.367Z,72.91
2022-11-04T00:20:45.240Z,73.04
2022-11-04T00:24:05.922Z,73.00
2022-11-04T00:27:27.859Z,72.33
2022-11-04T00:30:30.156Z,72.67
2022-11-04T00:33:32.413Z,72.73
2022-11-04T00:36:34.935Z,72.92
2022-11-04T00:39:37.154Z,73.27
2022-11-04T00:42:39.806Z,73.28
2022-11-04T00:45:42.625Z,73.25
2022-11-04T00:48:44.925Z,73.10
2022-11-04T00:51:47.172Z,73.32
2022-11-04T00:54:49.419Z,74.03
2022-11-04T00:57:51.855Z,74.01
2022-11-04T01:00:54.167Z,73.76
2022-11-04T01:03:56.985Z,74.37
2022-11-04T01:07:00.579Z,74.30
2022-11-04T01:10:02.867Z,74.05
2022-11-04T01:13:05.307Z,74.49
2022-11-04T01:16:10.059Z,74.31
2022-11-04T01:19:12.586Z,74.12
2022-11-04T01:22:14.808Z,73.94
2022-11-04T01:25:17.101Z,74.07
2022-11-04T01:28:19.380Z,74.06
2022-11-04T01:31:27.800Z,74.19
2022-11-04T01:34:30.140Z,74.01
2022-11-04T01:37:32.420Z,74.21
2022-11-04T01:40:39.462Z,74.25
2022-11-04T01:43:58.026Z,73.96
2022-11-04T01:47:00.294Z,74.17
2022-11-04T01:50:07.170Z,74.50
2022-11-04T01:53:12.673Z,74.37
2022-11-04T01:56:16.039Z,74.56
2022-11-04T01:59:39.387Z,74.23
2022-11-04T02:03:09.190Z,74.85
2022-11-04T02:06:11.728Z,74.67
2022-11-04T02:09:14.368Z,74.79
2022-11-04T02:12:36.111Z,74.91
2022-11-04T02:15:49.656Z,75.79
2022-11-04T02:19:20.683Z,75.52
2022-11-04T02:22:32.257Z,75.65
2022-11-04T02:25:37.483Z,75.97
2022-11-04T02:28:58.689Z,76.46
2022-11-04T02:32:08.620Z,76.18
2022-11-04T02:35:23.088Z,75.99
2022-11-04T02:38:33.627Z,75.63
2022-11-04T02:42:04.945Z,75.43
2022-11-04T02:45:38.917Z,75.60
2022-11-04T02:48:44.203Z,75.65
2022-11-04T02:51:54.318Z,75.33
2022-11-04T02:55:00.937Z,75.76
2022-11-04T02:58:06.629Z,76.17
2022-11-04T03:01:13.340Z,75.84
2022-11-04T03:04:19.156Z,76.36
2022-11-04T03:07:25.661Z,75.61
2022-11-04T03:10:37.278Z,75.64
2022-11-04T03:14:03.285Z,75.64
2022-11-04T03:17:15.681Z,75.10
2022-11-04T03:20:24.075Z,74.50
2022-11-04T03:23:26.355Z,74.73
2022-11-04T03:26:49.945Z,74.53
2022-11-04T03:30:02.725Z,74.47
2022-11-04T03:33:15.228Z,74.20
2022-11-04T03:36:18.196Z,74.51
2022-11-04T03:39:20.478Z,74.70
2022-11-04T03:42:23.877Z,75.24
2022-11-04T03:45:26.705Z,75.13
2022-11-04T03:48:29.853Z,76.33
2022-11-04T03:51:32.080Z,76.14
2022-11-04T03:54:36.211Z,75.82
2022-11-04T03:58:05.881Z,76.64
2022-11-04T04:01:26.889Z,76.54
2022-11-04T04:04:32.612Z,76.33
2022-11-04T04:07:40.211Z,76.67
2022-11-04T04:10:48.271Z,76.80
2022-11-04T04:13:58.469Z,76.14
2022-11-04T04:17:03.884Z,76.08
2022-11-04T04:20:17.540Z,76.06
2022-11-04T04:23:45.440Z,75.84
2022-11-04T04:27:07.304Z,75.64
2022-11-04T04:30:14.830Z,75.74
2022-11-04T04:33:18.455Z,75.86
2022-11-04T04:36:20.748Z,75.81
2022-11-04T04:39:44.800Z,75.20
2022-11-04T04:43:05.716Z,75.28
2022-11-04T04:46:08.170Z,75.76
2022-11-04T04:49:10.603Z,76.26
2022-11-04T04:52:12.854Z,76.25
2022-11-04T04:55:15.973Z,76.07
2022-11-04T04:58:18.244Z,75.79
2022-11-04T05:01:20.710Z,75.54
2022-11-04T05:04:23.184Z,76.35
2022-11-04T05:07:26.276Z,76.02
2022-11-04T05:10:28.578Z,75.63
2022-11-04T05:13:30.978Z,76.47
2022-11-04T05:16:37.962Z,75.99
2022-11-04T05:19:42.820Z,75.97
2022-11-04T05:22:45.125Z,76.23
2022-11-04T05:25:47.588Z,75.22
2022-11-04T05:28:49.868Z,74.98
2022-11-04T05:31:52.133Z,74.83
2022-11-04T05:34:54.397Z,75.49
2022-11-04T05:37:57.130Z,74.69
2022-11-04T05:40:59.445Z,74.52
2022-11-04T05:44:03.918Z,74.28
2022-11-04T05:47:06.335Z,73.74
2022-11-04T05:50:08.989Z,74.14
2022-11-04T05:53:11.504Z,73.61
2022-11-04T05:56:13.983Z,73.54
2022-11-04T05:59:16.296Z,74.21
2022-11-04T06:02:18.768Z,74.61
2022-11-04T06:05:21.117Z,74.61
2022-11-04T06:08:23.398Z,73.83
2022-11-04T06:11:26.887Z,73.10
2022-11-04T06:14:29.095Z,72.93
2022-11-04T06:17:31.481Z,73.16
2022-11-04T06:20:33.798Z,72.72
2022-11-04T06:23:36.052Z,72.64
2022-11-04T06:26:39.745Z,72.72
2022-11-04T06:29:42.452Z,72.70
2022-11-04T06:32:44.774Z,72.84
2022-11-04T06:35:47.076Z,72.36
2022-11-04T06:38:49.574Z,72.52
2022-11-04T06:41:52.542Z,72.49
2022-11-04T06:44:56.163Z,71.88
2022-11-04T06:47:58.536Z,71.22
2022-11-04T06:51:01.355Z,71.39
2022-11-04T06:54:04.028Z,72.10
2022-11-04T06:57:06.855Z,71.76
2022-11-04T07:00:09.731Z,72.07
2022-11-04T07:03:12.108Z,72.44
2022-11-04T07:06:14.425Z,72.25
2022-11-04T07:09:16.738Z,72.77
2022-11-04T07:12:23.637Z,72.74
2022-11-04T07:15:27.617Z,72.25
2022-11-04T07:18:30.015Z,72.90
2022-11-04T07:21:32.333Z,72.73
2022-11-04T07:24:35.255Z,73.09
2022-11-04T07:27:37.597Z,72.58
2022-11-04T07:30:40.056Z,71.93
2022-11-04T07:33:42.421Z,71.53
2022-11-04T07:36:44.715Z,72.18
2022-11-04T07:39:46.962Z,71.71
2022-11-04T07:42:49.236Z,71.93
2022-11-04T07:46:07.509Z,71.67
2022-11-04T07:49:09.800Z,71.40
2022-11-04T07:52:12.091Z,71.64
2022-11-04T07:55:18.517Z,71.23
2022-11-04T07:58:21.994Z,71.07
2022-11-04T08:01:24.993Z,70.63
2022-11-04T08:04:27.550Z,70.32
2022-11-04T08:07:29.860Z,71.16
2022-11-04T08:10:32.075Z,70.72
2022-11-04T08:13:36.784Z,70.66
2022-11-04T08:16:39.018Z,70.63
2022-11-04T08:19:41.399Z,71.41
2022-11-04T08:22:43.679Z,71.74
2022-11-04T08:25:46.701Z,71.71
2022-11-04T08:28:49.997Z,71.28
2022-11-04T08:31:52.297Z,71.85
2022-11-04T08:34:54.633Z,71.70
2022-11-04T08:37:57.176Z,70.46
2022-11-04T08:41:00.661Z,70.29
2022-11-04T08:44:04.333Z,70.21
2022-11-04T08:47:06.981Z,70.43
2022-11-04T08:50:09.458Z,70.67
2022-11-04T08:53:12.030Z,70.71
2022-11-04T08:56:18.499Z,70.74
2022-11-04T08:59:20.815Z,70.32
2022-11-04T09:02:23.077Z,70.44
2022-11-04T09:05:25.696Z,69.94
2022-11-04T09:08:27.975Z,69.93
2022-11-04T09:11:37.579Z,70.29
2022-11-04T09:14:39.929Z,70.16
2022-11-04T09:17:44.393Z,69.49
2022-11-04T09:20:46.727Z,69.20
2022-11-04T09:23:48.957Z,69.71
2022-11-04T09:26:51.317Z,70.47
2022-11-04T09:29:53.629Z,69.58
2022-11-04T09:32:55.954Z,69.92
2022-11-04T09:35:58.487Z,71.06
2022-11-04T09:39:00.758Z,71.19
2022-11-04T09:42:21.375Z,71.99
2022-11-04T09:45:27.734Z,71.04
2022-11-04T09:48:48.936Z,70.98
2022-11-04T09:51:55.285Z,70.44
2022-11-04T09:55:12.205Z,71.11
2022-11-04T09:58:15.079Z,70.73
2022-11-04T10:01:46.784Z,70.98
2022-11-04T10:04:54.973Z,69.51
2022-11-04T10:08:00.353Z,69.84
2022-11-04T10:11:07.247Z,70.97
2022-11-04T10:14:15.552Z,71.34
2022-11-04T10:17:38.047Z,72.16
2022-11-04T10:20:47.363Z,70.93
2022-11-04T10:24:17.058Z,71.88
2022-11-04T10:27:28.519Z,72.09
2022-11-04T10:30:32.176Z,72.07
2022-11-04T10:33:42.109Z,73.52
2022-11-04T10:36:47.621Z,72.46
2022-11-04T10:39:49.984Z,71.73
2022-11-04T10:42:53.144Z,73.44
2022-11-04T10:46:14.662Z,71.32
2022-11-04T10:50:06.701Z,71.57
2022-11-04T10:53:14.610Z,70.58
2022-11-04T10:56:25.542Z,70.32
2022-11-04T10:59:42.865Z,70.97
2022-11-04T11:02:47.218Z,72.32
2022-11-04T11:05:50.085Z,70.19
2022-11-04T11:08:55.405Z,69.03
2022-11-04T11:12:01.516Z,69.62
2022-11-04T11:15:19.631Z,70.39
2022-11-04T11:18:23.670Z,69.54
2022-11-04T11:21:26.145Z,69.42
2022-11-04T11:24:31.068Z,69.49
2022-11-04T11:27:33.328Z,70.66
2022-11-04T11:30:45.997Z,67.65
2022-11-04T11:33:52.373Z,66.89
2022-11-04T11:36:56.334Z,66.16
2022-11-04T11:39:58.900Z,66.29
2022-11-04T11:43:02.282Z,66.50
2022-11-04T11:46:04.940Z,66.58
2022-11-04T11:49:23.671Z,65.99
2022-11-04T11:52:33.628Z,66.20
2022-11-04T11:55:37.265Z,66.24
2022-11-04T12:02:41.252Z,66.80
2022-11-04T12:09:27.677Z,67.62
2022-11-04T12:12:49.618Z,66.67
2022-11-04T12:16:16.770Z,66.33
2022-11-04T12:19:26.991Z,66.67
2022-11-04T12:22:54.098Z,65.93
2022-11-04T12:26:02.453Z,65.55
2022-11-04T12:29:27.513Z,65.54
2022-11-04T12:32:48.925Z,64.60
2022-11-04T12:36:15.997Z,64.93
2022-11-04T12:39:48.262Z,65.17
2022-11-04T12:43:03.010Z,66.37
2022-11-04T12:46:35.909Z,65.64
2022-11-04T12:50:07.067Z,66.16
2022-11-04T12:53:34.089Z,64.89
2022-11-04T12:56:41.227Z,65.47
2022-11-04T12:59:52.565Z,64.77
2022-11-04T13:03:02.993Z,65.45
2022-11-04T13:06:18.933Z,64.64
2022-11-04T13:09:26.155Z,65.00
2022-11-04T13:12:48.826Z,65.90
2022-11-04T13:16:10.973Z,66.01
2022-11-04T13:19:25.215Z,66.18
2022-11-04T13:22:32.774Z,65.79
2022-11-04T13:25:40.882Z,65.28
2022-11-04T13:28:44.713Z,65.53
2022-11-04T13:31:50.444Z,65.36
2022-11-04T13:35:13.250Z,65.10
2022-11-04T13:38:34.204Z,64.86
2022-11-04T13:41:39.630Z,64.83
2022-11-04T13:44:44.391Z,65.26
2022-11-04T13:47:55.732Z,65.27
2022-11-04T13:51:04.733Z,65.13
2022-11-04T13:54:26.738Z,65.79
2022-11-04T13:57:31.156Z,65.89
2022-11-04T14:00:34.962Z,65.67
2022-11-04T14:03:37.304Z,65.33
2022-11-04T14:06:48.676Z,65.83
2022-11-04T14:09:53.695Z,65.74
2022-11-04T14:13:27.862Z,65.56
2022-11-04T14:16:30.275Z,64.50
2022-11-04T14:20:05.239Z,65.02
2022-11-04T14:23:21.832Z,65.14
2022-11-04T14:26:27.291Z,65.59
2022-11-04T14:29:29.589Z,65.61
2022-11-04T14:32:36.519Z,65.50
2022-11-04T14:35:38.789Z,66.09
2022-11-04T14:38:41.504Z,66.59
2022-11-04T14:41:50.318Z,66.15
2022-11-04T14:44:52.791Z,66.82
2022-11-04T14:47:57.825Z,65.66
2022-11-04T14:51:00.275Z,66.19
2022-11-04T14:54:05.950Z,66.05
2022-11-04T14:57:22.361Z,66.37
2022-11-04T15:00:30.723Z,66.67
2022-11-04T15:04:27.314Z,67.63
2022-11-04T15:07:31.253Z,67.71
2022-11-04T15:10:33.648Z,68.52
2022-11-04T15:13:43.536Z,68.54
2022-11-04T15:16:47.493Z,69.73
2022-11-04T15:19:52.205Z,70.06
2022-11-04T15:22:55.840Z,69.90
2022-11-04T15:25:59.171Z,70.22
2022-11-04T15:29:12.167Z,71.01
2022-11-04T15:32:18.101Z,71.24
2022-11-04T15:35:20.570Z,70.69
2022-11-04T15:38:24.043Z,71.41
2022-11-04T15:41:46.476Z,71.59
2022-11-04T15:44:53.791Z,71.33
2022-11-04T15:48:24.090Z,71.43
2022-11-04T15:51:26.740Z,72.21
2022-11-04T15:54:29.699Z,71.19
2022-11-04T15:57:38.894Z,71.93
2022-11-04T16:00:41.306Z,70.91
2022-11-04T16:03:51.808Z,71.48
2022-11-04T16:07:09.217Z,71.78
2022-11-04T16:10:30.481Z,71.67
2022-11-04T16:13:32.877Z,72.28
2022-11-04T16:16:35.316Z,72.68
2022-11-04T16:19:37.682Z,73.03
2022-11-04T16:22:40.819Z,73.26
2022-11-04T16:25:43.269Z,73.17
2022-11-04T16:28:45.571Z,72.96
2022-11-04T16:32:15.930Z,73.27
2022-11-04T16:35:26.684Z,74.51
2022-11-04T16:38:28.985Z,75.41
2022-11-04T16:41:37.102Z,74.43
2022-11-04T16:44:39.517Z,74.30
2022-11-04T16:47:42.824Z,75.25
2022-11-04T16:50:45.396Z,74.63
2022-11-04T16:53:52.420Z,75.27
2022-11-04T16:56:55.515Z,75.90
2022-11-04T16:59:58.260Z,75.98
2022-11-04T17:03:02.093Z,76.47
2022-11-04T17:06:04.753Z,76.71
2022-11-04T17:09:18.984Z,76.43
2022-11-04T17:12:21.240Z,76.02
2022-11-04T17:15:23.507Z,75.70
2022-11-04T17:18:25.753Z,75.05
2022-11-04T17:21:28.646Z,75.67
2022-11-04T17:24:31.006Z,75.40
2022-11-04T17:27:33.310Z,75.28
2022-11-04T17:30:35.700Z,75.41
2022-11-04T17:33:37.991Z,75.75
2022-11-04T17:36:40.357Z,75.45
2022-11-04T17:39:42.599Z,75.37
2022-11-04T17:43:10.148Z,75.42
2022-11-04T17:46:33.244Z,74.49
2022-11-04T17:49:39.181Z,74.32
2022-11-04T17:52:44.959Z,74.26
2022-11-04T17:55:47.248Z,74.82
2022-11-04T17:58:50.201Z,74.66
2022-11-04T18:01:53.109Z,74.68
2022-11-04T18:04:55.583Z,75.33
2022-11-04T18:07:58.600Z,74.54
2022-11-04T18:11:07.095Z,74.77
2022-11-04T18:14:15.331Z,74.80
2022-11-04T18:17:19.091Z,74.05
2022-11-04T18:20:21.623Z,75.25
2022-11-04T18:23:24.923Z,75.35
2022-11-04T18:26:27.267Z,75.65
2022-11-04T18:29:29.723Z,75.51
2022-11-04T18:32:32.012Z,75.12
2022-11-04T18:35:35.462Z,75.20
2022-11-04T18:38:37.917Z,75.23
2022-11-04T18:41:41.164Z,75.43
2022-11-04T18:44:43.535Z,75.68
2022-11-04T18:47:49.263Z,76.49
2022-11-04T18:50:51.479Z,76.80
2022-11-04T18:53:53.761Z,76.60
2022-11-04T18:56:56.089Z,77.18
2022-11-04T18:59:58.481Z,77.29
2022-11-04T19:03:02.190Z,77.18
2022-11-04T19:06:12.357Z,77.08
2022-11-04T19:09:45.358Z,77.41
2022-11-04T19:12:57.556Z,77.62
2022-11-04T19:16:06.000Z,77.50
2022-11-04T19:19:18.074Z,77.37
2022-11-04T19:22:20.356Z,76.86
2022-11-04T19:25:22.640Z,77.25
2022-11-04T19:28:40.498Z,77.32
2022-11-04T19:31:47.243Z,77.66
2022-11-04T19:34:49.844Z,77.67
2022-11-04T19:37:52.140Z,77.45
2022-11-04T19:40:54.850Z,77.29
2022-11-04T19:43:57.439Z,76.78
2022-11-04T19:46:59.717Z,76.50
2022-11-04T19:50:02.498Z,76.79
2022-11-04T19:53:04.780Z,76.91
2022-11-04T19:56:07.295Z,76.69
2022-11-04T19:59:11.200Z,76.49
2022-11-04T20:02:14.880Z,77.10
2022-11-04T20:05:17.776Z,76.40
2022-11-04T20:08:20.487Z,76.44
2022-11-04T20:11:23.600Z,76.64
2022-11-04T20:14:27.068Z,76.64
2022-11-04T20:17:31.418Z,76.74
2022-11-04T20:20:33.695Z,77.10
2022-11-04T20:23:35.966Z,76.29
2022-11-04T20:26:39.242Z,76.97
2022-11-04T20:29:43.095Z,76.83
2022-11-04T20:32:45.431Z,76.77
2022-11-04T20:35:47.895Z,76.88
2022-11-04T20:38:56.113Z,76.80
2022-11-04T20:41:58.414Z,77.13
2022-11-04T20:45:00.728Z,77.02
2022-11-04T20:48:03.122Z,76.88
2022-11-04T20:51:10.172Z,76.75
2022-11-04T20:54:12.632Z,76.30
2022-11-04T20:57:14.900Z,76.11
2022-11-04T21:00:17.363Z,77.07
2022-11-04T21:03:19.644Z,76.16
2022-11-04T21:06:21.969Z,76.74
2022-11-04T21:09:24.306Z,76.48
2022-11-04T21:12:26.701Z,77.15
2022-11-04T21:15:49.385Z,77.12
2022-11-04T21:18:51.712Z,76.72
2022-11-04T21:21:54.445Z,76.96
2022-11-04T21:24:56.729Z,77.07
2022-11-04T21:27:59.004Z,77.14
2022-11-04T21:31:06.934Z,77.66
2022-11-04T21:34:09.617Z,77.34
2022-11-04T21:37:11.924Z,77.07
2022-11-04T21:40:14.213Z,76.89
2022-11-04T21:43:16.825Z,78.03
2022-11-04T21:46:19.136Z,78.07
2022-11-04T21:49:21.524Z,78.03
2022-11-04T21:52:24.180Z,78.38
2022-11-04T21:55:26.476Z,77.93
2022-11-04T21:58:30.313Z,77.28
2022-11-04T22:01:33.082Z,77.73
2022-11-04T22:04:35.605Z,77.76
2022-11-04T22:07:57.001Z,77.79
2022-11-04T22:11:06.667Z,77.46
2022-11-04T22:14:12.096Z,77.64
2022-11-04T22:17:14.480Z,77.79
2022-11-04T22:20:16.876Z,77.95
2022-11-04T22:23:19.174Z,77.55
2022-11-04T22:26:27.026Z,77.85
2022-11-04T22:29:30.057Z,77.56
2022-11-04T22:32:32.296Z,77.54
2022-11-04T22:35:34.913Z,77.81
2022-11-04T22:38:37.928Z,77.67
2022-11-04T22:41:40.242Z,77.63
2022-11-04T22:44:42.506Z,76.95
2022-11-04T22:47:44.781Z,77.32
2022-11-04T22:50:53.451Z,76.73
2022-11-04T22:53:59.996Z,77.20
2022-11-04T22:57:03.846Z,77.35
2022-11-04T23:00:06.852Z,76.60
2022-11-04T23:03:09.638Z,76.52
2022-11-04T23:06:12.340Z,76.44
2022-11-04T23:09:15.111Z,76.26
2022-11-04T23:12:36.582Z,77.21
2022-11-04T23:15:58.946Z,76.96
2022-11-04T23:19:01.235Z,76.95
2022-11-04T23:22:22.082Z,77.27
2022-11-04T23:25:25.139Z,77.20
2022-11-04T23:28:46.019Z,76.83
2022-11-04T23:31:48.301Z,77.10
2022-11-04T23:35:09.172Z,76.89
2022-11-04T23:38:11.727Z,76.50
2022-11-04T23:41:32.638Z,76.58
2022-11-04T23:44:53.441Z,76.58
2022-11-04T23:48:14.247Z,77.38
2022-11-04T23:51:34.986Z,76.86
2022-11-04T23:54:55.973Z,77.57
2022-11-04T23:58:16.800Z,77.14
